AirNav   Pilot Hours Calculator
 
 458 users online  

CL35 Warner Springs Gliderport
Warner Springs, California, USA

GOING TO WARNER SPRINGS?


FAA INFORMATION EFFECTIVE 15 AUGUST 2019

Location

FAA Identifier: CL35
Lat/Long: 33-17-04.2100N 116-40-10.7650W
33-17.070167N 116-40.179417W
33.2845028,-116.6696569
(estimated)
Elevation: 2880 ft. / 878 m (estimated)
Variation: 13E (1985)
From city: 2 miles E of WARNER SPRINGS, CA
Time zone: UTC -7 (UTC -8 during Standard Time)
Zip code: 92086

Gliderport Operations

Gliderport use: Private use. Permission required prior to landing
Activation date: 10/1984
Control tower: no
ARTCC: LOS ANGELES CENTER
FSS: SAN DIEGO FLIGHT SERVICE STATION
Attendance: 0900-1700
Wind indicator: yes
Segmented circle: yes
Landing fee: yes

Gliderport Communications

UNICOM: 122.8
WX AWOS-3P at L08 (18 nm E): 126.575 (760-767-3308)
WX ASOS at RNM (19 nm SW): 132.025 (760-789-0736)

Nearby radio navigation aids

VOR radial/distance  VOR name  Freq  Var
JLIr319/9.6JULIAN VORTAC114.0015E
TRMr218/32.8THERMAL VORTAC116.2013E
PSPr186/37.1PALM SPRINGS VORTAC115.5013E
OCNr071/37.6OCEANSIDE VORTAC115.3015E
HDFr125/(39.2)HOMELAND VOR113.4014E

Gliderport Services

Runway Information

Runway 8/26

Dimensions: 3500 x 70 ft. / 1067 x 21 m
Surface: asphalt
RUNWAY 8  RUNWAY 26
Latitude: 33-17.060333N33-17.080000N
Longitude: 116-40.522667W116-39.836167W
Elevation: 2873.0 ft.2914.0 ft.
Traffic pattern: leftleft
Obstructions: none200 ft. hill, 5200 ft. from runway

Gliderport Ownership and Management from official FAA records

Ownership: Privately-owned
Owner: WARNER SPRINGS RANCH RESORT, LLC
31930 HWY 79
WARNER SPRINGS, CA 92086
Phone 760-782-4200
SKY SAILING 31930 HWY 79.
Manager: BRET WILLAT
SKY SAILING 31930 HWY 79
WARNER SPRINGS, CA 92086
Phone 760-782-0404
LEASEE.

Gliderport Operational Statistics

Aircraft based on the field: 80
Single engine airplanes: 10
Gliders airplanes: 70
    

Additional Remarks

FOR CD CTC LOS ANGELES ARTCC AT 661-575-2079.

Instrument Procedures

There are no published instrument procedures at CL35.

Some nearby airports with instrument procedures:

L08 - Borrego Valley Airport (18 nm E)
KRNM - Ramona Airport (19 nm SW)
F70 - French Valley Airport (29 nm NW)
L18 - Fallbrook Community Airpark (29 nm W)
KSEE - Gillespie Field Airport (31 nm SW)
 
Loc | Ops | Rwys | IFR | FBO | Links
Com | Nav | Svcs | Stats | Notes
Area around CL35 (Warner Springs Gliderport)
 
Road maps at: MapQuest Bing Google
 
Aerial photo
WARNING: Photo may not be current or correct
Aerial photo of CL35 (Warner Springs Gliderport)
Photo by Steve Lupinacci
Photo taken 27-May-2008

Do you have a better or more recent aerial photo of Warner Springs Gliderport that you would like to share? If so, please send us your photo.

 
Sectional chart

 
Airport distance calculator
Flying to Warner Springs Gliderport? Find the distance to fly.

From to CL35

Sunrise and sunset
Times for 24-Aug-2019
 Local
(UTC-7)
 Zulu
(UTC)
Morning civil twilight05:5112:51
Sunrise06:1713:17
Sunset19:2102:21
Evening civil twilight19:4702:47

Current date and time
Zulu (UTC)  25-Aug-2019 06:35:06
Local (UTC-7)  24-Aug-2019 23:35:06
 
METAR
KL08 
18nm E 
250615Z AUTO 00000KT 10SM BKN039 BKN046 OVC050 32/19 A2989 RMK AO2
KRNM 
20nm SW 
250553Z AUTO 05003KT 10SM CLR 21/14 A3000 RMK AO2 SLP140 T02110144 10311 20211 51008
KF70 
29nm NW 
250615Z AUTO 00000KT 10SM CLR 21/15 A3001 RMK AO1
KL18 
29nm W 
250615Z AUTO 00000KT 10SM CLR 19/18 A2998 RMK AO2
KSEE 
32nm SW 
250615Z AUTO 30005KT 10SM CLR 22/17 A2996 RMK AO2
KCRQ 
32nm W 
250553Z AUTO 00000KT 10SM CLR 22/18 A2996 RMK AO2 SLP142 T02170183 10233 20211 53005
KTRM 
33nm NE 
250552Z AUTO 11010KT 10SM CLR 34/21 A2985 RMK AO2 SLP112 T03390206 10394 20333 51020 $
KPSP 
33nm N 
250553Z 06008KT 10SM CLR 34/18 A2992 RMK AO2 SLP127 T03440178 10383 20344 51020
KNFG 
33nm W 
250555Z AUTO 25003KT 9SM CLR 18/16 A2996 RMK AO2 SLP144 T01830161 10244 20178 51007
KNKX 
34nm SW 
250555Z 34004KT 10SM CLR 22/18 A2997 RMK AO2 SLP142 T02170178 10283 20217 51007
TAF
KCRQ 
32nm W 
250520Z 2506/2606 VRB05KT P6SM SCT009 FM250800 VRB03KT P6SM BKN009 FM251600 VRB04KT P6SM FEW011 FM251900 25008KT P6SM SCT100 FM260200 VRB05KT P6SM FEW008 SCT150
KTRM 
33nm NE 
250520Z 2506/2606 VRB05KT P6SM SKC FM251900 14010KT P6SM FEW040 SCT150 FM260200 VRB05KT P6SM SCT150
KPSP 
33nm N 
250520Z 2506/2606 VRB05KT P6SM SKC FM251800 11008KT P6SM SCT150 FM260200 32006KT P6SM SCT150
KNFG 
33nm W 
2503/2603 VRB05KT 9999 FEW010 QNH2991INS TEMPO 2504/2510 6000 BR BKN009 TEMPO 2510/2516 BKN004 FM251730 22008KT 9999 NSW SKC QNH2988INS AUTOMATED SENSOR METWATCH 2503 TIL 2614 T17/2513Z T28/2521Z
KNKX 
34nm SW 
2503/2603 VRB05KT 9999 FEW010 QNH2992INS TEMPO 2503/2509 9000 BR BKN009 TEMPO 2509/2515 3200 BR BKN004 FM251730 28008KT 9999 NSW SKC QNH2990INS T18/2512Z T29/2521Z
NOTAMs
Click for the latest NOTAMs
NOTAMs are issued by the DoD/FAA and will open in a separate window not controlled by AirNav.

 

 
 

Would you like to see your business listed on this page?

 If your business provides an interesting product or service to pilots, flight crews, aircraft, or users of the Warner Springs Gliderport, you should consider listing it here.  To start the listing process, click on the button below
 
Add a business
 

Other Pages about Warner Springs Gliderport

www.agcsc.org/warner_springs_info.html
 
Update a link
 
Copyright © AirNav, LLC. All rights reserved. Privacy Policy  Contact